sensor_id;sensor_type;location;lat;lon;timestamp;temperature;humidity
43151;DHT22;28755;51.478;5.702;2023-03-04T00:02:19;6.70;99.90
43151;DHT22;28755;51.478;5.702;2023-03-04T00:04:45;6.70;99.90
43151;DHT22;28755;51.478;5.702;2023-03-04T00:07:10;6.70;99.90
43151;DHT22;28755;51.478;5.702;2023-03-04T00:09:42;6.70;99.90
43151;DHT22;28755;51.478;5.702;2023-03-04T00:12:07;6.70;99.90
43151;DHT22;28755;51.478;5.702;2023-03-04T00:14:33;6.70;99.90
43151;DHT22;28755;51.478;5.702;2023-03-04T00:16:59;6.70;99.90
43151;DHT22;28755;51.478;5.702;2023-03-04T00:19:24;6.70;99.90
43151;DHT22;28755;51.478;5.702;2023-03-04T00:21:50;6.70;99.90
43151;DHT22;28755;51.478;5.702;2023-03-04T00:24:15;6.70;99.90
43151;DHT22;28755;51.478;5.702;2023-03-04T00:26:41;6.70;99.90
43151;DHT22;28755;51.478;5.702;2023-03-04T00:29:06;6.70;99.90
43151;DHT22;28755;51.478;5.702;2023-03-04T00:31:32;6.70;99.90
43151;DHT22;28755;51.478;5.702;2023-03-04T00:33:58;6.70;99.90
43151;DHT22;28755;51.478;5.702;2023-03-04T00:36:24;6.60;99.90
43151;DHT22;28755;51.478;5.702;2023-03-04T00:38:49;6.60;99.90
43151;DHT22;28755;51.478;5.702;2023-03-04T00:41:15;6.60;99.90
43151;DHT22;28755;51.478;5.702;2023-03-04T00:43:40;6.70;99.90
43151;DHT22;28755;51.478;5.702;2023-03-04T00:46:06;6.70;99.90
43151;DHT22;28755;51.478;5.702;2023-03-04T00:48:31;6.60;99.90
43151;DHT22;28755;51.478;5.702;2023-03-04T00:50:57;6.70;99.90
43151;DHT22;28755;51.478;5.702;2023-03-04T00:53:23;6.70;99.90
43151;DHT22;28755;51.478;5.702;2023-03-04T00:55:49;6.70;99.90
43151;DHT22;28755;51.478;5.702;2023-03-04T00:58:14;6.70;99.90
43151;DHT22;28755;51.478;5.702;2023-03-04T01:00:40;6.70;99.90
43151;DHT22;28755;51.478;5.702;2023-03-04T01:03:05;6.70;99.90
43151;DHT22;28755;51.478;5.702;2023-03-04T01:05:31;6.70;99.90
43151;DHT22;28755;51.478;5.702;2023-03-04T01:07:58;6.70;99.90
43151;DHT22;28755;51.478;5.702;2023-03-04T01:10:24;6.60;99.90
43151;DHT22;28755;51.478;5.702;2023-03-04T01:12:49;6.60;99.90
43151;DHT22;28755;51.478;5.702;2023-03-04T01:15:15;6.60;99.90
43151;DHT22;28755;51.478;5.702;2023-03-04T01:17:41;6.50;99.90
43151;DHT22;28755;51.478;5.702;2023-03-04T01:20:07;6.60;99.90
43151;DHT22;28755;51.478;5.702;2023-03-04T01:22:33;6.50;99.90
43151;DHT22;28755;51.478;5.702;2023-03-04T01:24:59;6.60;99.90
43151;DHT22;28755;51.478;5.702;2023-03-04T01:27:24;6.60;99.90
43151;DHT22;28755;51.478;5.702;2023-03-04T01:29:50;6.60;99.90
43151;DHT22;28755;51.478;5.702;2023-03-04T01:32:15;6.50;99.90
43151;DHT22;28755;51.478;5.702;2023-03-04T01:34:41;6.50;99.90
43151;DHT22;28755;51.478;5.702;2023-03-04T01:37:06;6.60;99.90
43151;DHT22;28755;51.478;5.702;2023-03-04T01:39:32;6.60;99.90
43151;DHT22;28755;51.478;5.702;2023-03-04T01:41:58;6.60;99.90
43151;DHT22;28755;51.478;5.702;2023-03-04T01:44:24;6.50;99.90
43151;DHT22;28755;51.478;5.702;2023-03-04T01:46:52;6.40;99.90
43151;DHT22;28755;51.478;5.702;2023-03-04T01:49:19;6.50;99.90
43151;DHT22;28755;51.478;5.702;2023-03-04T01:51:50;6.60;99.90
43151;DHT22;28755;51.478;5.702;2023-03-04T01:54:17;6.50;99.90
43151;DHT22;28755;51.478;5.702;2023-03-04T01:56:44;6.50;99.90
43151;DHT22;28755;51.478;5.702;2023-03-04T02:01:48;6.40;99.90
43151;DHT22;28755;51.478;5.702;2023-03-04T02:04:16;6.40;99.90
43151;DHT22;28755;51.478;5.702;2023-03-04T02:06:43;6.40;99.90
43151;DHT22;28755;51.478;5.702;2023-03-04T02:09:09;6.40;99.90
43151;DHT22;28755;51.478;5.702;2023-03-04T02:11:36;6.40;99.90
43151;DHT22;28755;51.478;5.702;2023-03-04T02:14:03;6.50;99.90
43151;DHT22;28755;51.478;5.702;2023-03-04T02:16:28;6.40;99.90
43151;DHT22;28755;51.478;5.702;2023-03-04T02:18:55;6.40;99.90
43151;DHT22;28755;51.478;5.702;2023-03-04T02:21:32;6.50;99.90
43151;DHT22;28755;51.478;5.702;2023-03-04T02:24:22;6.40;99.90
43151;DHT22;28755;51.478;5.702;2023-03-04T02:26:51;6.40;99.90
43151;DHT22;28755;51.478;5.702;2023-03-04T02:29:17;6.40;99.90
43151;DHT22;28755;51.478;5.702;2023-03-04T02:31:45;6.40;99.90
43151;DHT22;28755;51.478;5.702;2023-03-04T02:34:14;6.50;99.90
43151;DHT22;28755;51.478;5.702;2023-03-04T02:36:41;6.40;99.90
43151;DHT22;28755;51.478;5.702;2023-03-04T02:39:36;6.50;99.90
43151;DHT22;28755;51.478;5.702;2023-03-04T02:42:01;6.40;99.90
43151;DHT22;28755;51.478;5.702;2023-03-04T02:44:31;6.40;99.90
43151;DHT22;28755;51.478;5.702;2023-03-04T02:46:59;6.40;99.90
43151;DHT22;28755;51.478;5.702;2023-03-04T02:49:27;6.40;99.90
43151;DHT22;28755;51.478;5.702;2023-03-04T02:51:59;6.30;99.90
43151;DHT22;28755;51.478;5.702;2023-03-04T02:54:25;6.40;99.90
43151;DHT22;28755;51.478;5.702;2023-03-04T02:56:53;6.30;99.90
43151;DHT22;28755;51.478;5.702;2023-03-04T02:59:20;6.40;99.90
43151;DHT22;28755;51.478;5.702;2023-03-04T03:01:46;6.30;99.90
43151;DHT22;28755;51.478;5.702;2023-03-04T03:04:12;6.30;99.90
43151;DHT22;28755;51.478;5.702;2023-03-04T03:06:38;6.30;99.90
43151;DHT22;28755;51.478;5.702;2023-03-04T03:09:04;6.30;99.90
43151;DHT22;28755;51.478;5.702;2023-03-04T03:11:30;6.40;99.90
43151;DHT22;28755;51.478;5.702;2023-03-04T03:13:55;6.30;99.90
43151;DHT22;28755;51.478;5.702;2023-03-04T03:16:21;6.30;99.90
43151;DHT22;28755;51.478;5.702;2023-03-04T03:18:47;6.30;99.90
43151;DHT22;28755;51.478;5.702;2023-03-04T03:21:12;6.30;99.90
43151;DHT22;28755;51.478;5.702;2023-03-04T03:23:38;6.40;99.90
43151;DHT22;28755;51.478;5.702;2023-03-04T03:26:04;6.30;99.90
43151;DHT22;28755;51.478;5.702;2023-03-04T03:28:29;6.30;99.90
43151;DHT22;28755;51.478;5.702;2023-03-04T03:30:55;6.30;99.90
43151;DHT22;28755;51.478;5.702;2023-03-04T03:33:20;6.30;99.90
43151;DHT22;28755;51.478;5.702;2023-03-04T03:35:46;6.40;99.90
43151;DHT22;28755;51.478;5.702;2023-03-04T03:38:12;6.40;99.90
43151;DHT22;28755;51.478;5.702;2023-03-04T03:40:37;6.30;99.90
43151;DHT22;28755;51.478;5.702;2023-03-04T03:43:03;6.40;99.90
43151;DHT22;28755;51.478;5.702;2023-03-04T03:45:29;6.30;99.90
43151;DHT22;28755;51.478;5.702;2023-03-04T03:47:54;6.30;99.90
43151;DHT22;28755;51.478;5.702;2023-03-04T03:50:20;6.30;99.90
43151;DHT22;28755;51.478;5.702;2023-03-04T03:52:45;6.20;99.90
43151;DHT22;28755;51.478;5.702;2023-03-04T03:55:11;6.20;99.90
43151;DHT22;28755;51.478;5.702;2023-03-04T03:57:37;6.30;99.90
43151;DHT22;28755;51.478;5.702;2023-03-04T04:00:04;6.30;99.90
43151;DHT22;28755;51.478;5.702;2023-03-04T04:02:30;6.20;99.90
43151;DHT22;28755;51.478;5.702;2023-03-04T04:04:55;6.20;99.90
43151;DHT22;28755;51.478;5.702;2023-03-04T04:07:21;6.30;99.90
43151;DHT22;28755;51.478;5.702;2023-03-04T04:09:46;6.20;99.90
43151;DHT22;28755;51.478;5.702;2023-03-04T04:12:14;6.20;99.90
43151;DHT22;28755;51.478;5.702;2023-03-04T04:14:40;6.20;99.90
43151;DHT22;28755;51.478;5.702;2023-03-04T04:17:05;6.20;99.90
43151;DHT22;28755;51.478;5.702;2023-03-04T04:19:31;6.20;99.90
43151;DHT22;28755;51.478;5.702;2023-03-04T04:21:56;6.20;99.90
43151;DHT22;28755;51.478;5.702;2023-03-04T04:24:22;6.30;99.90
43151;DHT22;28755;51.478;5.702;2023-03-04T04:26:48;6.20;99.90
43151;DHT22;28755;51.478;5.702;2023-03-04T04:29:14;6.20;99.90
43151;DHT22;28755;51.478;5.702;2023-03-04T04:31:39;6.20;99.90
43151;DHT22;28755;51.478;5.702;2023-03-04T04:34:05;6.20;99.90
43151;DHT22;28755;51.478;5.702;2023-03-04T04:36:31;6.20;99.90
43151;DHT22;28755;51.478;5.702;2023-03-04T04:38:56;6.20;99.90
43151;DHT22;28755;51.478;5.702;2023-03-04T04:41:25;6.20;99.90
43151;DHT22;28755;51.478;5.702;2023-03-04T04:43:50;6.20;99.90
43151;DHT22;28755;51.478;5.702;2023-03-04T04:46:17;6.30;99.90
43151;DHT22;28755;51.478;5.702;2023-03-04T04:48:43;6.20;99.90
43151;DHT22;28755;51.478;5.702;2023-03-04T04:51:09;6.20;99.90
43151;DHT22;28755;51.478;5.702;2023-03-04T04:53:34;6.20;99.90
43151;DHT22;28755;51.478;5.702;2023-03-04T04:56:07;6.20;99.90
43151;DHT22;28755;51.478;5.702;2023-03-04T04:58:33;6.10;99.90
43151;DHT22;28755;51.478;5.702;2023-03-04T05:00:59;6.20;99.90
43151;DHT22;28755;51.478;5.702;2023-03-04T05:03:24;6.20;99.90
43151;DHT22;28755;51.478;5.702;2023-03-04T05:05:50;6.20;99.90
43151;DHT22;28755;51.478;5.702;2023-03-04T05:08:15;6.20;99.90
43151;DHT22;28755;51.478;5.702;2023-03-04T05:10:41;6.20;99.90
43151;DHT22;28755;51.478;5.702;2023-03-04T05:13:06;6.20;99.90
43151;DHT22;28755;51.478;5.702;2023-03-04T05:15:32;6.20;99.90
43151;DHT22;28755;51.478;5.702;2023-03-04T05:17:57;6.10;99.90
43151;DHT22;28755;51.478;5.702;2023-03-04T05:20:23;6.20;99.90
43151;DHT22;28755;51.478;5.702;2023-03-04T05:22:49;6.10;99.90
43151;DHT22;28755;51.478;5.702;2023-03-04T05:25:15;6.10;99.90
43151;DHT22;28755;51.478;5.702;2023-03-04T05:27:41;6.20;99.90
43151;DHT22;28755;51.478;5.702;2023-03-04T05:30:07;6.10;99.90
43151;DHT22;28755;51.478;5.702;2023-03-04T05:32:33;6.20;99.90
43151;DHT22;28755;51.478;5.702;2023-03-04T05:34:58;6.10;99.90
43151;DHT22;28755;51.478;5.702;2023-03-04T05:37:24;6.10;99.90
43151;DHT22;28755;51.478;5.702;2023-03-04T05:39:49;6.20;99.90
43151;DHT22;28755;51.478;5.702;2023-03-04T05:42:15;6.10;99.90
43151;DHT22;28755;51.478;5.702;2023-03-04T05:44:40;6.20;99.90
43151;DHT22;28755;51.478;5.702;2023-03-04T05:47:06;6.10;99.90
43151;DHT22;28755;51.478;5.702;2023-03-04T05:49:31;6.20;99.90
43151;DHT22;28755;51.478;5.702;2023-03-04T05:51:57;6.10;99.90
43151;DHT22;28755;51.478;5.702;2023-03-04T05:54:23;6.20;99.90
43151;DHT22;28755;51.478;5.702;2023-03-04T05:56:48;6.20;99.90
43151;DHT22;28755;51.478;5.702;2023-03-04T05:59:14;6.10;99.90
43151;DHT22;28755;51.478;5.702;2023-03-04T06:05:13;6.20;99.90
43151;DHT22;28755;51.478;5.702;2023-03-04T06:07:38;6.10;99.90
43151;DHT22;28755;51.478;5.702;2023-03-04T06:10:05;6.20;99.90
43151;DHT22;28755;51.478;5.702;2023-03-04T06:12:30;6.20;99.90
43151;DHT22;28755;51.478;5.702;2023-03-04T06:14:56;6.20;99.90
43151;DHT22;28755;51.478;5.702;2023-03-04T06:17:22;6.20;99.90
43151;DHT22;28755;51.478;5.702;2023-03-04T06:19:47;6.10;99.90
43151;DHT22;28755;51.478;5.702;2023-03-04T06:22:13;6.10;99.90
43151;DHT22;28755;51.478;5.702;2023-03-04T06:24:38;6.10;99.90
43151;DHT22;28755;51.478;5.702;2023-03-04T06:27:04;6.10;99.90
43151;DHT22;28755;51.478;5.702;2023-03-04T06:29:30;6.10;99.90
43151;DHT22;28755;51.478;5.702;2023-03-04T06:31:55;6.10;99.90
43151;DHT22;28755;51.478;5.702;2023-03-04T06:34:21;6.10;99.90
43151;DHT22;28755;51.478;5.702;2023-03-04T06:36:47;6.00;99.90
43151;DHT22;28755;51.478;5.702;2023-03-04T06:39:12;6.00;99.90
43151;DHT22;28755;51.478;5.702;2023-03-04T06:41:38;6.00;99.90
43151;DHT22;28755;51.478;5.702;2023-03-04T06:44:04;6.00;99.90
43151;DHT22;28755;51.478;5.702;2023-03-04T06:46:31;6.10;99.90
43151;DHT22;28755;51.478;5.702;2023-03-04T06:48:57;6.00;99.90
43151;DHT22;28755;51.478;5.702;2023-03-04T06:51:22;6.00;99.90
43151;DHT22;28755;51.478;5.702;2023-03-04T06:53:48;6.00;99.90
43151;DHT22;28755;51.478;5.702;2023-03-04T06:56:14;6.00;99.90
43151;DHT22;28755;51.478;5.702;2023-03-04T06:58:41;6.00;99.90
43151;DHT22;28755;51.478;5.702;2023-03-04T07:01:19;6.00;99.90
43151;DHT22;28755;51.478;5.702;2023-03-04T07:03:45;6.00;99.90
43151;DHT22;28755;51.478;5.702;2023-03-04T07:06:13;6.00;99.90
43151;DHT22;28755;51.478;5.702;2023-03-04T07:08:40;6.00;99.90
43151;DHT22;28755;51.478;5.702;2023-03-04T07:11:06;6.00;99.90
43151;DHT22;28755;51.478;5.702;2023-03-04T07:13:31;6.00;99.90
43151;DHT22;28755;51.478;5.702;2023-03-04T07:16:00;6.10;99.90
43151;DHT22;28755;51.478;5.702;2023-03-04T07:18:25;6.00;99.90
43151;DHT22;28755;51.478;5.702;2023-03-04T07:20:52;6.10;99.90
43151;DHT22;28755;51.478;5.702;2023-03-04T07:23:18;6.10;99.90
43151;DHT22;28755;51.478;5.702;2023-03-04T07:25:43;6.30;99.90
43151;DHT22;28755;51.478;5.702;2023-03-04T07:28:09;6.20;99.90
43151;DHT22;28755;51.478;5.702;2023-03-04T07:30:35;6.20;99.90
43151;DHT22;28755;51.478;5.702;2023-03-04T07:33:00;6.30;99.90
43151;DHT22;28755;51.478;5.702;2023-03-04T07:35:26;6.30;99.90
43151;DHT22;28755;51.478;5.702;2023-03-04T07:37:51;6.30;99.90
43151;DHT22;28755;51.478;5.702;2023-03-04T07:40:17;6.30;99.90
43151;DHT22;28755;51.478;5.702;2023-03-04T07:42:43;6.40;99.90
43151;DHT22;28755;51.478;5.702;2023-03-04T07:45:09;6.50;99.90
43151;DHT22;28755;51.478;5.702;2023-03-04T07:47:35;6.50;99.90
43151;DHT22;28755;51.478;5.702;2023-03-04T07:50:00;6.60;99.90
43151;DHT22;28755;51.478;5.702;2023-03-04T07:52:26;6.60;99.90
43151;DHT22;28755;51.478;5.702;2023-03-04T07:54:51;6.60;99.90
43151;DHT22;28755;51.478;5.702;2023-03-04T07:57:17;6.60;99.90
43151;DHT22;28755;51.478;5.702;2023-03-04T07:59:42;6.60;99.90
43151;DHT22;28755;51.478;5.702;2023-03-04T08:02:09;6.60;99.90
43151;DHT22;28755;51.478;5.702;2023-03-04T08:04:35;6.60;99.90
43151;DHT22;28755;51.478;5.702;2023-03-04T08:07:00;6.60;99.90
43151;DHT22;28755;51.478;5.702;2023-03-04T08:09:26;6.60;99.90
43151;DHT22;28755;51.478;5.702;2023-03-04T08:11:52;6.60;99.90
43151;DHT22;28755;51.478;5.702;2023-03-04T08:14:17;6.60;99.90
43151;DHT22;28755;51.478;5.702;2023-03-04T08:16:43;6.70;99.90
43151;DHT22;28755;51.478;5.702;2023-03-04T08:19:10;6.80;99.90
43151;DHT22;28755;51.478;5.702;2023-03-04T08:21:36;6.70;99.90
43151;DHT22;28755;51.478;5.702;2023-03-04T08:24:03;6.80;99.90
43151;DHT22;28755;51.478;5.702;2023-03-04T08:26:33;6.90;99.90
43151;DHT22;28755;51.478;5.702;2023-03-04T08:29:02;7.10;99.90
43151;DHT22;28755;51.478;5.702;2023-03-04T08:31:28;7.30;99.90
43151;DHT22;28755;51.478;5.702;2023-03-04T08:33:54;7.40;99.90
43151;DHT22;28755;51.478;5.702;2023-03-04T08:36:19;7.60;99.90
43151;DHT22;28755;51.478;5.702;2023-03-04T08:38:45;7.70;99.90
43151;DHT22;28755;51.478;5.702;2023-03-04T08:41:12;7.80;99.90
43151;DHT22;28755;51.478;5.702;2023-03-04T08:43:37;8.20;99.90
43151;DHT22;28755;51.478;5.702;2023-03-04T08:46:03;8.70;99.90
43151;DHT22;28755;51.478;5.702;2023-03-04T08:48:29;9.20;99.90
43151;DHT22;28755;51.478;5.702;2023-03-04T08:50:55;9.10;99.90
43151;DHT22;28755;51.478;5.702;2023-03-04T08:53:21;9.30;99.90
43151;DHT22;28755;51.478;5.702;2023-03-04T08:55:47;9.90;99.90
43151;DHT22;28755;51.478;5.702;2023-03-04T08:58:13;10.20;99.90
43151;DHT22;28755;51.478;5.702;2023-03-04T09:00:41;9.90;99.90
43151;DHT22;28755;51.478;5.702;2023-03-04T09:03:10;9.50;99.90
43151;DHT22;28755;51.478;5.702;2023-03-04T09:05:35;9.00;99.90
43151;DHT22;28755;51.478;5.702;2023-03-04T09:08:01;8.80;99.90
43151;DHT22;28755;51.478;5.702;2023-03-04T09:10:26;8.90;99.90
43151;DHT22;28755;51.478;5.702;2023-03-04T09:12:52;9.10;99.90
43151;DHT22;28755;51.478;5.702;2023-03-04T09:15:18;9.40;99.90
43151;DHT22;28755;51.478;5.702;2023-03-04T09:17:43;9.40;99.90
43151;DHT22;28755;51.478;5.702;2023-03-04T09:20:10;9.40;99.90
43151;DHT22;28755;51.478;5.702;2023-03-04T09:22:37;9.50;99.90
43151;DHT22;28755;51.478;5.702;2023-03-04T09:25:03;9.40;99.90
43151;DHT22;28755;51.478;5.702;2023-03-04T09:27:28;9.10;99.90
43151;DHT22;28755;51.478;5.702;2023-03-04T09:29:54;9.00;99.90
43151;DHT22;28755;51.478;5.702;2023-03-04T09:32:20;8.90;99.90
43151;DHT22;28755;51.478;5.702;2023-03-04T09:34:45;8.80;99.90
43151;DHT22;28755;51.478;5.702;2023-03-04T09:37:11;8.80;99.90
43151;DHT22;28755;51.478;5.702;2023-03-04T09:39:36;8.60;99.90
43151;DHT22;28755;51.478;5.702;2023-03-04T09:42:03;8.50;99.90
43151;DHT22;28755;51.478;5.702;2023-03-04T09:44:35;8.50;99.90
43151;DHT22;28755;51.478;5.702;2023-03-04T09:47:05;8.40;99.90
43151;DHT22;28755;51.478;5.702;2023-03-04T09:49:32;8.80;99.90
43151;DHT22;28755;51.478;5.702;2023-03-04T09:52:09;9.20;99.90
43151;DHT22;28755;51.478;5.702;2023-03-04T09:57:23;9.80;99.90
43151;DHT22;28755;51.478;5.702;2023-03-04T10:00:04;10.00;99.90
43151;DHT22;28755;51.478;5.702;2023-03-04T10:05:12;10.70;99.90
43151;DHT22;28755;51.478;5.702;2023-03-04T10:07:40;10.60;99.90
43151;DHT22;28755;51.478;5.702;2023-03-04T10:10:25;10.70;99.90
43151;DHT22;28755;51.478;5.702;2023-03-04T10:12:54;11.60;99.90
43151;DHT22;28755;51.478;5.702;2023-03-04T10:15:42;13.40;99.90
43151;DHT22;28755;51.478;5.702;2023-03-04T10:18:23;13.30;99.90
43151;DHT22;28755;51.478;5.702;2023-03-04T10:21:00;13.00;99.90
43151;DHT22;28755;51.478;5.702;2023-03-04T10:23:27;11.60;99.90
43151;DHT22;28755;51.478;5.702;2023-03-04T10:25:53;10.80;99.90
43151;DHT22;28755;51.478;5.702;2023-03-04T10:28:25;10.40;99.90
43151;DHT22;28755;51.478;5.702;2023-03-04T10:33:44;9.70;99.90
43151;DHT22;28755;51.478;5.702;2023-03-04T10:38:58;9.30;99.90
43151;DHT22;28755;51.478;5.702;2023-03-04T10:41:27;9.10;99.90
43151;DHT22;28755;51.478;5.702;2023-03-04T10:46:37;9.10;99.90
43151;DHT22;28755;51.478;5.702;2023-03-04T10:49:03;9.40;99.90
43151;DHT22;28755;51.478;5.702;2023-03-04T10:51:30;9.60;99.90
43151;DHT22;28755;51.478;5.702;2023-03-04T10:54:06;9.60;99.90
43151;DHT22;28755;51.478;5.702;2023-03-04T11:01:56;9.10;99.90
43151;DHT22;28755;51.478;5.702;2023-03-04T11:04:25;8.90;99.90
43151;DHT22;28755;51.478;5.702;2023-03-04T11:06:52;8.80;99.90
43151;DHT22;28755;51.478;5.702;2023-03-04T11:09:24;8.70;99.90
43151;DHT22;28755;51.478;5.702;2023-03-04T11:11:51;8.80;99.90
43151;DHT22;28755;51.478;5.702;2023-03-04T11:17:18;8.60;99.90
43151;DHT22;28755;51.478;5.702;2023-03-04T11:19:50;9.10;99.90
43151;DHT22;28755;51.478;5.702;2023-03-04T11:22:19;9.50;99.90
43151;DHT22;28755;51.478;5.702;2023-03-04T11:25:02;10.40;99.90
43151;DHT22;28755;51.478;5.702;2023-03-04T11:27:46;11.20;99.90
43151;DHT22;28755;51.478;5.702;2023-03-04T11:33:20;11.00;99.90
43151;DHT22;28755;51.478;5.702;2023-03-04T11:35:57;10.70;99.90
43151;DHT22;28755;51.478;5.702;2023-03-04T11:38:31;10.00;99.90
43151;DHT22;28755;51.478;5.702;2023-03-04T11:41:01;9.80;99.90
43151;DHT22;28755;51.478;5.702;2023-03-04T11:43:38;9.60;99.90
43151;DHT22;28755;51.478;5.702;2023-03-04T12:03:26;10.50;99.90
43151;DHT22;28755;51.478;5.702;2023-03-04T12:05:57;10.90;99.90
43151;DHT22;28755;51.478;5.702;2023-03-04T12:19:36;10.90;99.90
43151;DHT22;28755;51.478;5.702;2023-03-04T12:28:07;9.90;99.90
43151;DHT22;28755;51.478;5.702;2023-03-04T12:30:47;9.60;99.90
43151;DHT22;28755;51.478;5.702;2023-03-04T12:44:13;9.70;99.90
43151;DHT22;28755;51.478;5.702;2023-03-04T12:53:00;9.50;99.90
43151;DHT22;28755;51.478;5.702;2023-03-04T12:55:38;9.60;99.90
43151;DHT22;28755;51.478;5.702;2023-03-04T12:58:05;9.60;99.90
43151;DHT22;28755;51.478;5.702;2023-03-04T13:01:01;9.60;99.90
43151;DHT22;28755;51.478;5.702;2023-03-04T13:03:40;9.70;99.90
43151;DHT22;28755;51.478;5.702;2023-03-04T13:06:24;9.80;99.90
43151;DHT22;28755;51.478;5.702;2023-03-04T13:14:05;9.80;99.90
43151;DHT22;28755;51.478;5.702;2023-03-04T13:16:43;9.80;99.90
43151;DHT22;28755;51.478;5.702;2023-03-04T13:19:41;9.90;99.90
43151;DHT22;28755;51.478;5.702;2023-03-04T13:24:53;9.70;99.90
43151;DHT22;28755;51.478;5.702;2023-03-04T13:27:49;9.80;99.90
43151;DHT22;28755;51.478;5.702;2023-03-04T13:30:40;9.70;99.90
43151;DHT22;28755;51.478;5.702;2023-03-04T13:49:00;9.10;99.90
43151;DHT22;28755;51.478;5.702;2023-03-04T13:51:40;9.00;99.90
43151;DHT22;28755;51.478;5.702;2023-03-04T13:54:24;8.90;99.90
43151;DHT22;28755;51.478;5.702;2023-03-04T13:57:21;8.70;99.90
43151;DHT22;28755;51.478;5.702;2023-03-04T13:59:56;8.60;99.90
43151;DHT22;28755;51.478;5.702;2023-03-04T14:02:23;8.50;99.90
43151;DHT22;28755;51.478;5.702;2023-03-04T14:07:32;8.50;99.90
43151;DHT22;28755;51.478;5.702;2023-03-04T14:10:00;8.60;99.90
43151;DHT22;28755;51.478;5.702;2023-03-04T14:12:28;8.70;99.90
43151;DHT22;28755;51.478;5.702;2023-03-04T14:15:04;8.80;99.90
43151;DHT22;28755;51.478;5.702;2023-03-04T14:17:34;8.90;99.90
43151;DHT22;28755;51.478;5.702;2023-03-04T14:20:06;8.80;99.90
43151;DHT22;28755;51.478;5.702;2023-03-04T14:22:45;8.90;99.90
43151;DHT22;28755;51.478;5.702;2023-03-04T14:27:40;9.30;99.90
43151;DHT22;28755;51.478;5.702;2023-03-04T14:30:18;9.60;99.90
43151;DHT22;28755;51.478;5.702;2023-03-04T14:32:44;9.80;99.90
43151;DHT22;28755;51.478;5.702;2023-03-04T14:35:27;9.90;99.90
43151;DHT22;28755;51.478;5.702;2023-03-04T14:38:02;9.90;99.90
43151;DHT22;28755;51.478;5.702;2023-03-04T14:40:39;10.00;99.90
43151;DHT22;28755;51.478;5.702;2023-03-04T14:43:12;9.90;99.90
43151;DHT22;28755;51.478;5.702;2023-03-04T14:45:41;9.70;99.90
43151;DHT22;28755;51.478;5.702;2023-03-04T14:48:07;9.50;99.90
43151;DHT22;28755;51.478;5.702;2023-03-04T14:50:33;9.30;99.90
43151;DHT22;28755;51.478;5.702;2023-03-04T14:53:15;9.10;99.90
43151;DHT22;28755;51.478;5.702;2023-03-04T14:55:57;9.10;99.90
43151;DHT22;28755;51.478;5.702;2023-03-04T14:58:26;8.90;99.90
43151;DHT22;28755;51.478;5.702;2023-03-04T15:01:14;8.90;99.90
43151;DHT22;28755;51.478;5.702;2023-03-04T15:03:43;8.80;99.90
43151;DHT22;28755;51.478;5.702;2023-03-04T15:06:20;8.70;99.90
43151;DHT22;28755;51.478;5.702;2023-03-04T15:08:54;8.60;99.90
43151;DHT22;28755;51.478;5.702;2023-03-04T15:11:23;8.60;99.90
43151;DHT22;28755;51.478;5.702;2023-03-04T15:13:52;8.70;99.90
43151;DHT22;28755;51.478;5.702;2023-03-04T15:16:22;8.70;99.90
43151;DHT22;28755;51.478;5.702;2023-03-04T15:19:03;8.70;99.90
43151;DHT22;28755;51.478;5.702;2023-03-04T15:21:38;8.80;99.90
43151;DHT22;28755;51.478;5.702;2023-03-04T15:24:06;8.80;99.90
43151;DHT22;28755;51.478;5.702;2023-03-04T15:26:33;8.80;99.90
43151;DHT22;28755;51.478;5.702;2023-03-04T15:29:03;9.00;99.90
43151;DHT22;28755;51.478;5.702;2023-03-04T15:31:35;9.10;99.90
43151;DHT22;28755;51.478;5.702;2023-03-04T15:34:00;9.20;99.90
43151;DHT22;28755;51.478;5.702;2023-03-04T15:36:26;9.20;99.90
43151;DHT22;28755;51.478;5.702;2023-03-04T15:38:52;9.00;99.90
43151;DHT22;28755;51.478;5.702;2023-03-04T15:41:23;9.00;99.90
43151;DHT22;28755;51.478;5.702;2023-03-04T15:43:50;8.90;99.90
43151;DHT22;28755;51.478;5.702;2023-03-04T15:46:16;8.70;99.90
43151;DHT22;28755;51.478;5.702;2023-03-04T15:48:42;8.70;99.90
43151;DHT22;28755;51.478;5.702;2023-03-04T15:51:12;8.70;99.90
43151;DHT22;28755;51.478;5.702;2023-03-04T15:53:45;8.60;99.90
43151;DHT22;28755;51.478;5.702;2023-03-04T15:56:18;8.40;99.90
43151;DHT22;28755;51.478;5.702;2023-03-04T15:58:50;8.40;99.90
43151;DHT22;28755;51.478;5.702;2023-03-04T16:01:17;8.30;99.90
43151;DHT22;28755;51.478;5.702;2023-03-04T16:03:42;8.30;99.90
43151;DHT22;28755;51.478;5.702;2023-03-04T16:06:10;8.30;99.90
43151;DHT22;28755;51.478;5.702;2023-03-04T16:08:36;8.30;99.90
43151;DHT22;28755;51.478;5.702;2023-03-04T16:11:02;8.20;99.90
43151;DHT22;28755;51.478;5.702;2023-03-04T16:13:27;8.20;99.90
43151;DHT22;28755;51.478;5.702;2023-03-04T16:15:53;8.20;99.90
43151;DHT22;28755;51.478;5.702;2023-03-04T16:18:18;8.40;99.90
43151;DHT22;28755;51.478;5.702;2023-03-04T16:20:46;8.40;99.90
43151;DHT22;28755;51.478;5.702;2023-03-04T16:23:21;8.30;99.90
43151;DHT22;28755;51.478;5.702;2023-03-04T16:25:49;8.20;99.90
43151;DHT22;28755;51.478;5.702;2023-03-04T16:28:15;8.30;99.90
43151;DHT22;28755;51.478;5.702;2023-03-04T16:30:41;8.30;99.90
43151;DHT22;28755;51.478;5.702;2023-03-04T16:33:06;8.20;99.90
43151;DHT22;28755;51.478;5.702;2023-03-04T16:35:34;8.30;99.90
43151;DHT22;28755;51.478;5.702;2023-03-04T16:38:00;8.20;99.90
43151;DHT22;28755;51.478;5.702;2023-03-04T16:40:28;8.20;99.90
43151;DHT22;28755;51.478;5.702;2023-03-04T16:42:54;8.10;99.90
43151;DHT22;28755;51.478;5.702;2023-03-04T16:45:23;8.00;99.90
43151;DHT22;28755;51.478;5.702;2023-03-04T16:47:48;8.00;99.90
43151;DHT22;28755;51.478;5.702;2023-03-04T16:50:16;7.90;99.90
43151;DHT22;28755;51.478;5.702;2023-03-04T16:52:43;7.90;99.90
43151;DHT22;28755;51.478;5.702;2023-03-04T16:55:22;7.90;99.90
43151;DHT22;28755;51.478;5.702;2023-03-04T16:57:48;7.90;99.90
43151;DHT22;28755;51.478;5.702;2023-03-04T17:00:16;7.90;99.90
43151;DHT22;28755;51.478;5.702;2023-03-04T17:02:43;7.80;99.90
43151;DHT22;28755;51.478;5.702;2023-03-04T17:05:19;7.90;99.90
43151;DHT22;28755;51.478;5.702;2023-03-04T17:07:45;7.80;99.90
43151;DHT22;28755;51.478;5.702;2023-03-04T17:10:12;7.80;99.90
43151;DHT22;28755;51.478;5.702;2023-03-04T17:12:39;7.80;99.90
43151;DHT22;28755;51.478;5.702;2023-03-04T17:15:05;7.80;99.90
43151;DHT22;28755;51.478;5.702;2023-03-04T17:17:31;7.80;99.90
43151;DHT22;28755;51.478;5.702;2023-03-04T17:19:56;7.80;99.90
43151;DHT22;28755;51.478;5.702;2023-03-04T17:22:22;7.70;99.90
43151;DHT22;28755;51.478;5.702;2023-03-04T17:24:49;7.80;99.90
43151;DHT22;28755;51.478;5.702;2023-03-04T17:27:15;7.70;99.90
43151;DHT22;28755;51.478;5.702;2023-03-04T17:29:40;7.60;99.90
43151;DHT22;28755;51.478;5.702;2023-03-04T17:32:06;7.70;99.90
43151;DHT22;28755;51.478;5.702;2023-03-04T17:34:32;7.70;99.90
43151;DHT22;28755;51.478;5.702;2023-03-04T17:36:57;7.70;99.90
43151;DHT22;28755;51.478;5.702;2023-03-04T17:39:23;7.70;99.90
43151;DHT22;28755;51.478;5.702;2023-03-04T17:41:50;7.70;99.90
43151;DHT22;28755;51.478;5.702;2023-03-04T17:44:16;7.70;99.90